Time;durP1;ratioP1;P1;durP2;ratioP2;P2;SDS_P1;SDS_P2;PMS_P1;PMS_P2;Temp;Humidity;BMP_temperature;BMP_pressure;BME280_temperature;BME280_humidity;BME280_pressure;Samples;Min_cycle;Max_cycle;Signal;HPM_P1;HPM_P2
2022/08/17 00:00:13;;;;;;;3.92;3.03;;;;;;;-148.56;100.00;61375.16;4904275;28;21274;-29
2022/08/17 00:03:17;;;;;;;3.15;2.70;;;;;;;-148.56;100.00;61375.16;4919829;28;20112;-30
2022/08/17 00:05:46;;;;;;;4.25;3.00;;;;;;;-148.56;100.00;61375.16;4886220;28;20090;-28
2022/08/17 00:08:13;;;;;;;4.30;2.90;;;;;;;-148.56;100.00;61375.16;4898644;28;20046;-26
2022/08/17 00:10:39;;;;;;;3.53;2.72;;;;;;;-148.56;100.00;61375.16;4909763;28;20124;-28
2022/08/17 00:13:06;;;;;;;5.57;3.35;;;;;;;-148.56;100.00;61375.16;4913104;28;20038;-28
2022/08/17 00:15:32;;;;;;;3.45;2.97;;;;;;;-148.56;100.00;61375.16;4910282;28;20101;-27
2022/08/17 00:17:57;;;;;;;4.68;3.17;;;;;;;-148.56;100.00;61375.16;4910594;28;20034;-32
2022/08/17 00:20:23;;;;;;;4.22;2.97;;;;;;;-148.56;100.00;61375.16;4918196;28;20450;-30
2022/08/17 00:22:48;;;;;;;5.13;3.22;;;;;;;-148.56;100.00;61375.16;4928878;28;20046;-34
2022/08/17 00:25:16;;;;;;;4.97;2.90;;;;;;;-148.56;100.00;61375.16;4917201;28;20118;-26
2022/08/17 00:27:41;;;;;;;5.00;2.80;;;;;;;-148.56;100.00;61375.16;4926951;28;20107;-28
2022/08/17 00:30:09;;;;;;;3.45;2.72;;;;;;;-148.56;100.00;61375.16;4915065;28;20038;-32
2022/08/17 00:32:45;;;;;;;4.75;2.80;;;;;;;-148.56;100.00;61375.16;4911126;28;20824;-31
2022/08/17 00:35:13;;;;;;;3.35;2.83;;;;;;;-148.56;100.00;61375.16;4908972;28;20991;-30
2022/08/17 00:37:38;;;;;;;3.67;3.08;;;;;;;-148.56;100.00;61375.16;4904890;28;20035;-29
2022/08/17 00:40:05;;;;;;;3.67;2.95;;;;;;;-148.56;100.00;61375.16;4913991;28;20365;-30
2022/08/17 00:42:30;;;;;;;3.38;2.70;;;;;;;-148.56;100.00;61375.16;4914739;28;20045;-34
2022/08/17 00:44:55;;;;;;;2.90;2.45;;;;;;;-148.56;100.00;61375.16;4912172;28;20035;-27
2022/08/17 00:47:21;;;;;;;4.53;3.00;;;;;;;-148.56;100.00;61375.16;4915671;28;20509;-31
2022/08/17 00:49:46;;;;;;;4.32;2.97;;;;;;;-148.56;100.00;61375.16;4917284;28;20958;-30
2022/08/17 00:52:15;;;;;;;5.53;2.90;;;;;;;-148.56;100.00;61375.16;4909599;28;20129;-27
2022/08/17 00:54:42;;;;;;;3.47;2.67;;;;;;;-148.56;100.00;61375.16;4915894;28;20426;-31
2022/08/17 00:57:13;;;;;;;3.53;2.90;;;;;;;-148.56;100.00;61375.16;4921265;28;20858;-34
2022/08/17 00:59:42;;;;;;;3.17;2.60;;;;;;;-148.56;100.00;61375.16;4926884;28;20041;-29
2022/08/17 01:02:08;;;;;;;3.03;2.75;;;;;;;-148.56;100.00;61375.16;4918164;28;20035;-29
2022/08/17 01:04:33;;;;;;;2.95;2.60;;;;;;;-148.56;100.00;61375.16;4926878;28;20088;-31
2022/08/17 01:06:59;;;;;;;3.67;2.65;;;;;;;-148.56;100.00;61375.16;4919237;28;20034;-28
2022/08/17 01:09:25;;;;;;;4.40;2.65;;;;;;;-148.56;100.00;61375.16;4920133;28;20145;-27
2022/08/17 01:11:51;;;;;;;3.90;2.92;;;;;;;-148.56;100.00;61375.16;4906602;28;20077;-27
2022/08/17 01:14:19;;;;;;;4.38;2.70;;;;;;;-148.56;100.00;61375.16;4924650;28;20171;-25
2022/08/17 01:16:45;;;;;;;3.08;2.78;;;;;;;-148.56;100.00;61375.16;4926392;28;20096;-28
2022/08/17 01:19:15;;;;;;;3.33;2.60;;;;;;;-148.56;100.00;61375.16;4926616;28;20267;-33
2022/08/17 01:22:05;;;;;;;5.20;2.72;;;;;;;-148.56;100.00;61375.16;4909298;28;20034;-32
2022/08/17 01:24:30;;;;;;;5.25;3.20;;;;;;;-148.56;100.00;61375.16;4922176;28;20027;-32
2022/08/17 01:26:56;;;;;;;4.55;3.05;;;;;;;-148.56;100.00;61375.16;4909263;28;21399;-29
2022/08/17 01:29:21;;;;;;;4.22;3.10;;;;;;;-148.56;100.00;61375.16;4919635;28;20604;-28
2022/08/17 01:31:49;;;;;;;3.97;2.78;;;;;;;-148.56;100.00;61375.16;4908170;28;20026;-29
2022/08/17 01:34:15;;;;;;;3.85;2.95;;;;;;;-148.56;100.00;61375.16;4929240;28;20060;-29
2022/08/17 01:36:43;;;;;;;5.00;2.88;;;;;;;-148.56;100.00;61375.16;4928731;28;20689;-27
2022/08/17 01:39:10;;;;;;;4.13;2.80;;;;;;;-148.56;100.00;61375.16;4912187;28;20041;-33
2022/08/17 01:41:36;;;;;;;3.97;2.92;;;;;;;-148.56;100.00;61375.16;4913454;28;20208;-29
2022/08/17 01:44:03;;;;;;;3.28;2.90;;;;;;;-148.56;100.00;61375.16;4915889;28;20026;-31
2022/08/17 01:46:30;;;;;;;5.70;3.08;;;;;;;-148.56;100.00;61375.16;4924427;28;20564;-29
2022/08/17 01:48:56;;;;;;;4.10;3.00;;;;;;;-148.56;100.00;61375.16;4924083;28;21083;-27
2022/08/17 01:51:23;;;;;;;4.93;2.92;;;;;;;-148.56;100.00;61375.16;4917990;28;20038;-31
2022/08/17 01:53:53;;;;;;;4.03;3.15;;;;;;;-148.56;100.00;61375.16;4916626;28;20109;-27
2022/08/17 01:56:21;;;;;;;3.45;2.67;;;;;;;-148.56;100.00;61375.16;4926134;28;20039;-30
2022/08/17 01:58:46;;;;;;;3.83;2.70;;;;;;;-148.56;100.00;61375.16;4926532;28;20030;-33
2022/08/17 02:01:13;;;;;;;5.43;3.10;;;;;;;-148.56;100.00;61375.16;4919953;28;20048;-30
2022/08/17 02:03:39;;;;;;;3.88;2.97;;;;;;;-148.56;100.00;61375.16;4925276;28;20023;-27
2022/08/17 02:06:04;;;;;;;3.70;2.80;;;;;;;-148.56;100.00;61375.16;4912097;28;20096;-29
2022/08/17 02:08:34;;;;;;;5.85;2.88;;;;;;;-148.56;100.00;61375.16;4916002;28;20064;-28
2022/08/17 02:10:59;;;;;;;4.50;2.90;;;;;;;-148.56;100.00;61375.16;4921504;28;20034;-26
2022/08/17 02:13:28;;;;;;;3.75;2.70;;;;;;;-148.56;100.00;61375.16;4914546;28;20065;-29
2022/08/17 02:15:54;;;;;;;3.15;2.38;;;;;;;-148.56;100.00;61375.16;4918901;28;20065;-29
2022/08/17 02:18:20;;;;;;;3.83;2.70;;;;;;;-148.56;100.00;61375.16;4924957;28;20149;-28
2022/08/17 02:20:45;;;;;;;4.53;2.85;;;;;;;-148.56;100.00;61375.16;4927877;28;20093;-31
2022/08/17 02:23:10;;;;;;;5.20;2.88;;;;;;;-148.56;100.00;61375.16;4920699;28;20092;-34
2022/08/17 02:25:36;;;;;;;3.75;2.70;;;;;;;-148.56;100.00;61375.16;4920879;28;20026;-26
2022/08/17 02:28:02;;;;;;;3.85;3.05;;;;;;;-148.56;100.00;61375.16;4903402;28;20994;-25
2022/08/17 02:30:28;;;;;;;3.40;2.60;;;;;;;-148.56;100.00;61375.16;4924881;28;20048;-30
2022/08/17 02:32:53;;;;;;;4.90;2.60;;;;;;;-148.56;100.00;61375.16;4925650;28;20977;-27
2022/08/17 02:35:20;;;;;;;5.15;2.70;;;;;;;-148.56;100.00;61375.16;4924483;28;20258;-33
2022/08/17 02:37:45;;;;;;;3.50;2.95;;;;;;;-148.56;100.00;61375.16;4916087;28;20125;-30
2022/08/17 02:40:11;;;;;;;2.95;2.60;;;;;;;-148.56;100.00;61375.16;4914542;28;20045;-30
2022/08/17 02:42:38;;;;;;;3.03;2.63;;;;;;;-148.56;100.00;61375.16;4917494;28;20716;-32
2022/08/17 02:45:09;;;;;;;3.50;2.67;;;;;;;-148.56;100.00;61375.16;4907054;28;20069;-27
2022/08/17 02:47:34;;;;;;;3.10;2.50;;;;;;;-148.56;100.00;61375.16;4916108;28;20393;-30
2022/08/17 02:50:00;;;;;;;4.88;2.92;;;;;;;-148.56;100.00;61375.16;4919419;28;20783;-32
2022/08/17 02:52:27;;;;;;;4.35;2.60;;;;;;;-148.56;100.00;61375.16;4910319;28;20031;-29
2022/08/17 02:54:53;;;;;;;3.60;2.60;;;;;;;-148.56;100.00;61375.16;4898649;28;20043;-30
2022/08/17 02:57:18;;;;;;;4.28;2.53;;;;;;;-148.56;100.00;61375.16;4916742;28;20941;-30
2022/08/17 02:59:44;;;;;;;3.58;2.50;;;;;;;-148.56;100.00;61375.16;4915824;28;20038;-28
2022/08/17 03:02:10;;;;;;;3.65;2.65;;;;;;;-148.56;100.00;61375.16;4912023;28;20547;-27
2022/08/17 03:04:35;;;;;;;3.70;2.92;;;;;;;-148.56;100.00;61375.16;4901348;28;20186;-30
2022/08/17 03:07:01;;;;;;;4.05;3.13;;;;;;;-148.56;100.00;61375.16;4922965;28;20137;-31
2022/08/17 03:09:27;;;;;;;3.78;2.90;;;;;;;-148.56;100.00;61375.16;4912381;28;20034;-27
2022/08/17 03:11:52;;;;;;;3.55;2.83;;;;;;;-148.56;100.00;61375.16;4916078;28;20053;-28
2022/08/17 03:14:18;;;;;;;4.65;2.70;;;;;;;-148.56;100.00;61375.16;4917374;28;20034;-29
2022/08/17 03:16:43;;;;;;;4.13;2.97;;;;;;;-148.56;100.00;61375.16;4920521;28;20046;-27
2022/08/17 03:19:09;;;;;;;3.58;2.80;;;;;;;-148.56;100.00;61375.16;4919857;28;20034;-28
2022/08/17 03:21:35;;;;;;;4.13;3.08;;;;;;;-148.56;100.00;61375.16;4924858;28;20052;-32
2022/08/17 03:24:00;;;;;;;3.60;3.00;;;;;;;-148.56;100.00;61375.16;4919505;28;20479;-29
2022/08/17 03:26:26;;;;;;;6.78;3.05;;;;;;;-148.56;100.00;61375.16;4915374;28;20034;-28
2022/08/17 03:28:52;;;;;;;3.13;2.78;;;;;;;-148.56;100.00;61375.16;4919664;28;20030;-31
2022/08/17 03:31:17;;;;;;;3.53;2.80;;;;;;;-148.56;100.00;61375.16;4928207;28;21155;-26
2022/08/17 03:33:43;;;;;;;3.72;2.83;;;;;;;-148.56;100.00;61375.16;4933569;28;20038;-28
2022/08/17 03:36:08;;;;;;;3.53;3.05;;;;;;;-148.56;100.00;61375.16;4919980;28;20041;-30
2022/08/17 03:38:34;;;;;;;3.50;2.78;;;;;;;-148.56;100.00;61375.16;4924569;28;20168;-29
2022/08/17 03:40:59;;;;;;;3.60;2.88;;;;;;;-148.56;100.00;61375.16;4918255;28;20037;-31
2022/08/17 03:43:26;;;;;;;4.18;3.20;;;;;;;-148.56;100.00;61375.16;4931883;28;20799;-32
2022/08/17 03:57:09;;;;;;;6.20;3.33;;;;;;;-148.56;100.00;61375.16;4914389;28;20080;-35
2022/08/17 03:59:34;;;;;;;6.68;3.35;;;;;;;-148.56;100.00;61375.16;4922194;28;20041;-31
2022/08/17 04:02:07;;;;;;;5.97;3.53;;;;;;;-148.56;100.00;61375.16;4920814;28;20058;-29
2022/08/17 04:04:33;;;;;;;4.25;3.13;;;;;;;-148.56;100.00;61375.16;4918808;28;20200;-29
2022/08/17 04:06:59;;;;;;;3.47;3.05;;;;;;;-148.56;100.00;61375.16;4914865;28;20631;-31
2022/08/17 04:09:24;;;;;;;5.43;3.30;;;;;;;-148.56;100.00;61375.16;4917366;28;20034;-29
2022/08/17 04:11:49;;;;;;;4.13;3.25;;;;;;;-148.56;100.00;61375.16;4910463;28;20133;-36
2022/08/17 04:14:15;;;;;;;3.95;3.15;;;;;;;-148.56;100.00;61375.16;4912887;28;20022;-28
2022/08/17 04:16:40;;;;;;;4.57;3.33;;;;;;;-148.56;100.00;61375.16;4930820;28;20037;-31
2022/08/17 04:19:06;;;;;;;5.30;3.17;;;;;;;-148.56;100.00;61375.16;4920886;28;20623;-29
2022/08/17 04:21:31;;;;;;;3.22;2.67;;;;;;;-148.56;100.00;61375.16;4918673;28;20054;-28
2022/08/17 04:23:57;;;;;;;6.53;3.40;;;;;;;-148.56;100.00;61375.16;4917760;28;20162;-28
2022/08/17 04:26:22;;;;;;;4.63;2.83;;;;;;;-148.56;100.00;61375.16;4923651;28;20050;-28
2022/08/17 04:28:48;;;;;;;5.53;3.50;;;;;;;-148.56;100.00;61375.16;4912714;28;20477;-31
2022/08/17 04:31:13;;;;;;;3.65;3.10;;;;;;;-148.56;100.00;61375.16;4919726;28;20030;-30
2022/08/17 04:33:39;;;;;;;4.03;3.20;;;;;;;-148.56;100.00;61375.16;4919703;28;20565;-32
2022/08/17 04:36:05;;;;;;;4.75;3.17;;;;;;;-148.56;100.00;61375.16;4928944;28;20115;-30
2022/08/17 04:38:36;;;;;;;4.32;2.65;;;;;;;-148.56;100.00;61375.16;4920587;28;20070;-26
2022/08/17 04:43:46;;;;;;;4.53;3.10;;;;;;;-148.56;100.00;61375.16;4934449;28;20133;-27
2022/08/17 04:46:13;;;;;;;5.47;3.10;;;;;;;-148.56;100.00;61375.16;4915679;28;20022;-37
2022/08/17 04:48:41;;;;;;;8.77;3.30;;;;;;;-148.56;100.00;61375.16;4924559;28;20136;-28
2022/08/17 04:51:09;;;;;;;3.33;2.85;;;;;;;-148.56;100.00;61375.16;4919119;28;20033;-29
2022/08/17 04:53:34;;;;;;;4.63;3.08;;;;;;;-148.56;100.00;61375.16;4913836;28;20030;-29
2022/08/17 04:56:00;;;;;;;4.43;3.53;;;;;;;-148.56;100.00;61375.16;4909277;28;20562;-28
2022/08/17 04:58:25;;;;;;;6.32;3.25;;;;;;;-148.56;100.00;61375.16;4930401;28;20030;-34
2022/08/17 05:00:50;;;;;;;4.55;3.20;;;;;;;-148.56;100.00;61375.16;4921527;28;20034;-30
2022/08/17 05:03:16;;;;;;;4.82;3.10;;;;;;;-148.56;100.00;61375.16;4921188;28;20514;-31
2022/08/17 05:05:50;;;;;;;10.50;3.33;;;;;;;-148.56;100.00;61375.16;4912306;28;20035;-24
2022/08/17 05:08:17;;;;;;;7.10;2.92;;;;;;;-148.56;100.00;61375.16;4925438;28;20038;-31
2022/08/17 05:10:43;;;;;;;3.00;2.70;;;;;;;-148.56;100.00;61375.16;4920986;28;20936;-31
2022/08/17 05:13:14;;;;;;;5.20;3.20;;;;;;;-148.56;100.00;61375.16;4912645;28;20050;-28
2022/08/17 05:15:40;;;;;;;6.47;3.40;;;;;;;-148.56;100.00;61375.16;4917966;28;20314;-31
2022/08/17 05:18:05;;;;;;;3.60;3.03;;;;;;;-148.56;100.00;61375.16;4916115;28;20049;-29
2022/08/17 05:20:31;;;;;;;4.22;3.08;;;;;;;-148.56;100.00;61375.16;4916584;28;20161;-32
2022/08/17 05:22:58;;;;;;;5.32;3.60;;;;;;;-148.56;100.00;61375.16;4924104;28;20073;-31
2022/08/17 05:25:28;;;;;;;10.02;3.30;;;;;;;-148.56;100.00;61375.16;4929085;28;20038;-33
2022/08/17 05:27:54;;;;;;;6.15;3.65;;;;;;;-148.56;100.00;61375.16;4918358;28;20145;-35
2022/08/17 05:30:19;;;;;;;6.28;3.25;;;;;;;-148.56;100.00;61375.16;4925858;28;20049;-25
2022/08/17 05:33:08;;;;;;;8.60;3.40;;;;;;;-148.56;100.00;61375.16;4921333;28;20955;-31
2022/08/17 05:35:36;;;;;;;5.43;3.55;;;;;;;-148.56;100.00;61375.16;4908617;28;20042;-29
2022/08/17 05:38:01;;;;;;;5.35;3.05;;;;;;;-148.56;100.00;61375.16;4913990;28;20030;-30
2022/08/17 05:40:27;;;;;;;9.65;3.35;;;;;;;-148.56;100.00;61375.16;4924194;28;21204;-26
2022/08/17 05:43:26;;;;;;;7.32;3.15;;;;;;;-148.56;100.00;61375.16;4936760;28;20026;-30
2022/08/17 05:46:01;;;;;;;5.05;3.20;;;;;;;-148.56;100.00;61375.16;4918770;28;20034;-27
2022/08/17 05:48:26;;;;;;;6.85;3.20;;;;;;;-148.56;100.00;61375.16;4933527;28;20035;-29
2022/08/17 05:51:17;;;;;;;10.70;3.67;;;;;;;-148.56;100.00;61375.16;4919403;28;20066;-29
2022/08/17 05:54:04;;;;;;;5.63;3.67;;;;;;;-148.56;100.00;61375.16;4916752;28;20895;-25
2022/08/17 05:56:52;;;;;;;4.90;3.40;;;;;;;-148.56;100.00;61375.16;4923867;28;20061;-26
2022/08/17 05:59:58;;;;;;;8.90;3.47;;;;;;;-148.56;100.00;61375.16;4917037;28;20030;-32
2022/08/17 06:02:28;;;;;;;5.25;3.25;;;;;;;-148.56;100.00;61375.16;4909635;28;20735;-30
2022/08/17 06:05:21;;;;;;;5.50;3.17;;;;;;;-148.56;100.00;61375.16;4924697;28;20027;-30
2022/08/17 06:08:22;;;;;;;6.07;3.45;;;;;;;-148.56;100.00;61375.16;4917845;28;20064;-33
2022/08/17 06:11:13;;;;;;;4.65;3.22;;;;;;;-148.56;100.00;61375.16;4928320;28;20113;-30
2022/08/17 06:13:57;;;;;;;6.07;3.17;;;;;;;-148.56;100.00;61375.16;4933490;28;20406;-29
2022/08/17 06:16:28;;;;;;;9.32;3.40;;;;;;;-148.56;100.00;61375.16;4925393;28;20027;-31
2022/08/17 06:19:15;;;;;;;7.72;3.30;;;;;;;-148.56;100.00;61375.16;4916106;28;20766;-27
2022/08/17 06:21:43;;;;;;;9.90;3.75;;;;;;;-148.56;100.00;61375.16;4915873;28;20026;-26
2022/08/17 06:24:20;;;;;;;15.63;3.80;;;;;;;-148.56;100.00;61375.16;4928987;28;20034;-30
2022/08/17 06:26:46;;;;;;;10.15;3.50;;;;;;;-148.56;100.00;61375.16;4926371;28;20035;-34
2022/08/17 06:29:16;;;;;;;16.95;4.13;;;;;;;-148.56;100.00;61375.16;4911854;28;20244;-30
2022/08/17 06:31:42;;;;;;;8.77;3.70;;;;;;;-148.56;100.00;61375.16;4910729;28;20034;-28
2022/08/17 06:34:09;;;;;;;6.70;3.35;;;;;;;-148.56;100.00;61375.16;4912462;28;20053;-30
2022/08/17 06:37:13;;;;;;;8.18;3.35;;;;;;;-148.56;100.00;61375.16;4917432;28;20034;-31
2022/08/17 06:40:17;;;;;;;8.68;3.90;;;;;;;-148.56;100.00;61375.16;4920154;28;20363;-29
2022/08/17 06:42:48;;;;;;;11.05;4.63;;;;;;;-148.56;100.00;61375.16;4918624;28;20038;-30
2022/08/17 06:45:30;;;;;;;7.50;4.60;;;;;;;-148.56;100.00;61375.16;4913924;28;21297;-28
2022/08/17 06:48:14;;;;;;;11.40;4.35;;;;;;;-148.56;100.00;61375.16;4916630;28;20971;-29
2022/08/17 06:50:46;;;;;;;10.38;4.07;;;;;;;-148.56;100.00;61375.16;4908578;28;20034;-30
2022/08/17 06:53:23;;;;;;;21.98;4.20;;;;;;;-148.56;100.00;61375.16;4898405;28;20108;-33
2022/08/17 06:55:54;;;;;;;7.00;4.18;;;;;;;-148.56;100.00;61375.16;4911761;28;20335;-27
2022/08/17 06:58:22;;;;;;;10.60;4.13;;;;;;;-148.56;100.00;61375.16;4910403;28;21541;-25
2022/08/17 07:00:50;;;;;;;9.02;4.47;;;;;;;-148.56;100.00;61375.16;4928545;28;20042;-28
2022/08/17 07:03:36;;;;;;;9.30;4.30;;;;;;;-148.56;100.00;61375.16;4913940;28;20954;-33
2022/08/17 07:06:09;;;;;;;6.40;4.10;;;;;;;-148.56;100.00;61375.16;4920512;28;21061;-26
2022/08/17 07:09:13;;;;;;;12.18;4.10;;;;;;;-148.56;100.00;61375.16;4915218;28;20030;-31
2022/08/17 07:11:45;;;;;;;11.07;4.53;;;;;;;-148.56;100.00;61375.16;4925895;28;20030;-29
2022/08/17 07:14:29;;;;;;;9.25;4.10;;;;;;;-148.56;100.00;61375.16;4915395;28;20115;-28
2022/08/17 07:16:57;;;;;;;7.93;3.83;;;;;;;-148.56;100.00;61375.16;4911093;28;20048;-25
2022/08/17 07:19:25;;;;;;;11.32;4.00;;;;;;;-148.56;100.00;61375.16;4909047;28;20361;-33
2022/08/17 07:22:12;;;;;;;8.57;4.22;;;;;;;-148.56;100.00;61375.16;4910019;28;20145;-26
2022/08/17 07:24:50;;;;;;;5.95;3.53;;;;;;;-148.56;100.00;61375.16;4926505;28;20031;-32
2022/08/17 07:27:21;;;;;;;8.20;3.67;;;;;;;-148.56;100.00;61375.16;4922709;28;20034;-31
2022/08/17 07:30:01;;;;;;;6.00;3.72;;;;;;;-148.56;100.00;61375.16;4919005;28;20030;-30
2022/08/17 07:32:30;;;;;;;10.73;3.92;;;;;;;-148.56;100.00;61375.16;4915760;28;20042;-32
2022/08/17 07:35:01;;;;;;;7.90;3.55;;;;;;;-148.56;100.00;61375.16;4930139;28;20972;-31
2022/08/17 07:37:26;;;;;;;5.70;3.35;;;;;;;-148.56;100.00;61375.16;4914604;28;20065;-31
2022/08/17 07:39:52;;;;;;;5.72;3.65;;;;;;;-148.56;100.00;61375.16;4916822;28;20048;-27
2022/08/17 07:42:17;;;;;;;6.75;3.60;;;;;;;-148.56;100.00;61375.16;4926062;28;20145;-31
2022/08/17 07:44:53;;;;;;;5.20;3.60;;;;;;;-148.56;100.00;61375.16;4911213;28;20045;-28
2022/08/17 07:50:03;;;;;;;6.35;3.80;;;;;;;-148.56;100.00;61375.16;4924027;28;20543;-31
2022/08/17 07:52:31;;;;;;;4.75;3.45;;;;;;;-148.56;100.00;61375.16;4905767;28;20042;-31
2022/08/17 07:54:57;;;;;;;10.05;4.10;;;;;;;-148.56;100.00;61375.16;4925379;28;20038;-31
2022/08/17 07:57:28;;;;;;;13.88;4.88;;;;;;;-148.56;100.00;61375.16;4925409;28;20627;-31
2022/08/17 07:59:59;;;;;;;9.63;3.80;;;;;;;-148.56;100.00;61375.16;4916265;28;20030;-30
2022/08/17 08:02:26;;;;;;;5.25;3.55;;;;;;;-148.56;100.00;61375.16;4944334;28;20038;-28
2022/08/17 08:05:17;;;;;;;8.32;3.58;;;;;;;-148.56;100.00;61375.16;4923458;28;20036;-28
2022/08/17 08:07:49;;;;;;;11.25;3.45;;;;;;;-148.56;100.00;61375.16;4922745;28;20030;-32
2022/08/17 08:10:39;;;;;;;7.47;3.58;;;;;;;-148.56;100.00;61375.16;4918796;28;20655;-27
2022/08/17 08:13:21;;;;;;;9.13;3.80;;;;;;;-148.56;100.00;61375.16;4921044;28;20033;-30
2022/08/17 08:16:16;;;;;;;7.85;3.42;;;;;;;-148.56;100.00;61375.16;4921915;28;20534;-31
2022/08/17 08:18:43;;;;;;;9.18;4.00;;;;;;;-148.56;100.00;61375.16;4917302;28;20782;-31
2022/08/17 08:21:34;;;;;;;9.25;3.08;;;;;;;-148.56;100.00;61375.16;4922801;28;20566;-27
2022/08/17 08:24:23;;;;;;;8.32;3.03;;;;;;;-148.56;100.00;61375.16;4915785;28;20913;-27
2022/08/17 08:27:14;;;;;;;7.50;3.00;;;;;;;-148.56;100.00;61375.16;4927913;28;20402;-30
2022/08/17 08:30:03;;;;;;;8.18;3.22;;;;;;;-148.56;100.00;61375.16;4923439;28;20639;-30
2022/08/17 08:32:53;;;;;;;6.03;2.97;;;;;;;-148.56;100.00;61375.16;4912510;28;20165;-31
2022/08/17 08:35:31;;;;;;;11.80;3.30;;;;;;;-148.56;100.00;61375.16;4918505;28;20030;-29
2022/08/17 08:38:22;;;;;;;9.80;3.15;;;;;;;-148.56;100.00;61375.16;4924653;28;20044;-33
2022/08/17 08:41:06;;;;;;;5.35;3.05;;;;;;;-148.56;100.00;61375.16;4920242;28;21991;-31
2022/08/17 08:43:45;;;;;;;9.35;3.20;;;;;;;-148.56;100.00;61375.16;4914892;28;20034;-30
2022/08/17 08:46:15;;;;;;;10.75;3.50;;;;;;;-148.56;100.00;61375.16;4919674;28;20053;-31
2022/08/17 08:49:20;;;;;;;15.55;3.30;;;;;;;-148.56;100.00;61375.16;4931667;28;20157;-33
2022/08/17 08:51:52;;;;;;;10.18;3.38;;;;;;;-148.56;100.00;61375.16;4923041;28;20029;-28
2022/08/17 08:54:33;;;;;;;13.75;3.70;;;;;;;-148.56;100.00;61375.16;4926170;28;20664;-27
2022/08/17 08:57:23;;;;;;;11.68;3.60;;;;;;;-148.56;100.00;61375.16;4921332;28;20049;-28
2022/08/17 09:00:14;;;;;;;7.68;3.30;;;;;;;-148.56;100.00;61375.16;4927352;28;20097;-30
2022/08/17 09:02:55;;;;;;;9.95;3.45;;;;;;;-148.56;100.00;61375.16;4924217;28;20037;-30
2022/08/17 09:05:58;;;;;;;17.23;3.50;;;;;;;-148.56;100.00;61375.16;4920897;28;20781;-29
2022/08/17 09:08:49;;;;;;;12.00;3.35;;;;;;;-148.56;100.00;61375.16;4919127;28;20033;-31
2022/08/17 09:11:17;;;;;;;4.32;3.10;;;;;;;-148.56;100.00;61375.16;4930462;28;21001;-28
2022/08/17 09:14:04;;;;;;;12.52;3.58;;;;;;;-148.56;100.00;61375.16;4926132;28;20061;-29
2022/08/17 09:16:40;;;;;;;16.75;3.60;;;;;;;-148.56;100.00;61375.16;4920483;28;20034;-30
2022/08/17 09:19:19;;;;;;;10.50;3.35;;;;;;;-148.56;100.00;61375.16;4921177;28;20035;-27
2022/08/17 09:21:53;;;;;;;8.55;3.28;;;;;;;-148.56;100.00;61375.16;4936972;28;20875;-31
2022/08/17 09:24:28;;;;;;;8.80;3.25;;;;;;;-148.56;100.00;61375.16;4933782;28;20157;-32
2022/08/17 09:27:01;;;;;;;5.82;3.50;;;;;;;-148.56;100.00;61375.16;4921039;28;20030;-31
2022/08/17 09:29:31;;;;;;;9.20;3.75;;;;;;;-148.56;100.00;61375.16;4901085;28;20034;-26
2022/08/17 09:32:00;;;;;;;13.63;3.90;;;;;;;-148.56;100.00;61375.16;4914896;28;20062;-28
2022/08/17 09:34:47;;;;;;;9.40;3.95;;;;;;;-148.56;100.00;61375.16;4908161;28;20595;-27
2022/08/17 09:37:55;;;;;;;8.98;3.95;;;;;;;-148.56;100.00;61375.16;4923011;28;20038;-28
2022/08/17 09:40:43;;;;;;;11.73;3.90;;;;;;;-148.56;100.00;61375.16;4920431;28;20054;-31
2022/08/17 09:43:14;;;;;;;11.27;3.60;;;;;;;-148.56;100.00;61375.16;4924963;28;20039;-32
2022/08/17 09:45:44;;;;;;;6.78;4.00;;;;;;;-148.56;100.00;61375.16;4934210;28;20141;-33
2022/08/17 09:48:18;;;;;;;10.70;4.30;;;;;;;-148.56;100.00;61375.16;4911885;28;20038;-28
2022/08/17 09:50:51;;;;;;;11.15;4.47;;;;;;;-148.56;100.00;61375.16;4926195;28;23343;-24
2022/08/17 09:53:17;;;;;;;12.40;4.80;;;;;;;-148.56;100.00;61375.16;4915696;28;20157;-33
2022/08/17 09:55:45;;;;;;;12.02;4.63;;;;;;;-148.56;100.00;61375.16;4922168;28;20145;-33
2022/08/17 09:58:10;;;;;;;11.57;4.50;;;;;;;-148.56;100.00;61375.16;4916903;28;20034;-30
2022/08/17 10:00:40;;;;;;;12.60;5.35;;;;;;;-148.56;100.00;61375.16;4929553;28;20035;-29
2022/08/17 10:03:20;;;;;;;16.40;5.90;;;;;;;-148.56;100.00;61375.16;4900893;28;20092;-27
2022/08/17 10:06:12;;;;;;;17.42;5.70;;;;;;;-148.56;100.00;61375.16;4920373;28;20161;-29
2022/08/17 10:08:42;;;;;;;16.13;5.80;;;;;;;-148.56;100.00;61375.16;4904122;28;20030;-33
2022/08/17 10:14:32;;;;;;;17.77;5.68;;;;;;;-148.56;100.00;61375.16;4927705;28;20065;-29
2022/08/17 10:17:35;;;;;;;10.70;5.07;;;;;;;-148.56;100.00;61375.16;4929395;28;21172;-32
2022/08/17 10:20:22;;;;;;;14.10;5.80;;;;;;;-148.56;100.00;61375.16;4918532;28;20109;-33
2022/08/17 10:28:29;;;;;;;13.98;5.47;;;;;;;-148.56;100.00;61375.16;4929365;28;20331;-32
2022/08/17 10:30:55;;;;;;;9.80;4.85;;;;;;;-148.56;100.00;61375.16;4934051;28;20022;-31
2022/08/17 10:33:23;;;;;;;14.30;5.30;;;;;;;-148.56;100.00;61375.16;4934081;28;20085;-31
2022/08/17 10:35:57;;;;;;;12.77;4.97;;;;;;;-148.56;100.00;61375.16;4912095;28;20050;-28
2022/08/17 10:38:26;;;;;;;10.15;4.95;;;;;;;-148.56;100.00;61375.16;4914940;28;21196;-29
2022/08/17 10:40:57;;;;;;;12.60;4.88;;;;;;;-148.56;100.00;61375.16;4916321;28;20870;-32
2022/08/17 10:43:43;;;;;;;14.52;5.40;;;;;;;-148.56;100.00;61375.16;4926589;28;20750;-30
2022/08/17 10:46:23;;;;;;;11.30;4.47;;;;;;;-148.56;100.00;61375.16;4922992;28;20809;-27
2022/08/17 10:49:16;;;;;;;11.15;4.63;;;;;;;-148.56;100.00;61375.16;4927040;28;20466;-29
2022/08/17 10:51:46;;;;;;;10.82;4.57;;;;;;;-148.56;100.00;61375.16;4928319;28;20127;-32
2022/08/17 10:54:24;;;;;;;10.20;4.35;;;;;;;-148.56;100.00;61375.16;4921697;28;20026;-30
2022/08/17 10:56:53;;;;;;;15.27;4.65;;;;;;;-148.56;100.00;61375.16;4912264;28;20125;-33
2022/08/17 10:59:37;;;;;;;11.25;4.93;;;;;;;-148.56;100.00;61375.16;4919205;28;20037;-30
2022/08/17 11:02:22;;;;;;;9.65;4.45;;;;;;;-148.56;100.00;61375.16;4917359;28;20520;-28
2022/08/17 11:05:13;;;;;;;7.68;4.30;;;;;;;-148.56;100.00;61375.16;4921580;28;20133;-30
2022/08/17 11:08:13;;;;;;;8.20;3.42;;;;;;;-148.56;100.00;61375.16;4920893;28;20089;-31
2022/08/17 11:11:20;;;;;;;8.30;4.07;;;;;;;-148.56;100.00;61375.16;4913949;28;20142;-31
2022/08/17 11:13:51;;;;;;;6.97;3.47;;;;;;;-148.56;100.00;61375.16;4912257;28;20050;-33
2022/08/17 11:16:22;;;;;;;6.90;3.90;;;;;;;-148.56;100.00;61375.16;4912861;28;20042;-32
2022/08/17 11:19:11;;;;;;;7.57;3.92;;;;;;;-148.56;100.00;61375.16;4912587;28;20538;-30
2022/08/17 11:21:49;;;;;;;6.50;3.25;;;;;;;-148.56;100.00;61375.16;4913346;28;20042;-28
2022/08/17 11:24:32;;;;;;;9.05;3.80;;;;;;;-148.56;100.00;61375.16;4909376;28;20059;-30
2022/08/17 11:27:02;;;;;;;8.98;3.85;;;;;;;-148.56;100.00;61375.16;4921837;28;20146;-30
2022/08/17 11:29:52;;;;;;;7.00;3.78;;;;;;;-148.56;100.00;61375.16;4928146;28;20042;-30
2022/08/17 11:32:42;;;;;;;8.13;3.35;;;;;;;-148.56;100.00;61375.16;4919959;28;20137;-31
2022/08/17 11:35:48;;;;;;;7.18;3.53;;;;;;;-148.56;100.00;61375.16;4912967;28;20027;-30
2022/08/17 11:38:25;;;;;;;6.65;3.75;;;;;;;-148.56;100.00;61375.16;4910174;28;20045;-27
2022/08/17 11:41:02;;;;;;;6.50;3.78;;;;;;;-148.56;100.00;61375.16;4891014;28;20037;-30
2022/08/17 11:43:47;;;;;;;5.63;3.20;;;;;;;-148.56;100.00;61375.16;4925268;28;20042;-26
2022/08/17 11:51:32;;;;;;;6.05;3.72;;;;;;;-148.56;100.00;61375.16;4914582;28;20405;-25
2022/08/17 11:52:05;;;;;;;5.97;3.42;;;;;;;-148.56;100.00;61375.16;4913490;28;20036;-32
2022/08/17 11:54:55;;;;;;;4.07;3.03;;;;;;;-148.56;100.00;61375.16;4917596;28;20907;-26
2022/08/17 11:57:26;;;;;;;5.40;3.58;;;;;;;-148.56;100.00;61375.16;4908339;28;20042;-26
2022/08/17 12:00:09;;;;;;;5.70;3.50;;;;;;;-148.56;100.00;61375.16;4906267;28;20230;-27
2022/08/17 12:02:42;;;;;;;5.50;3.25;;;;;;;-148.56;100.00;61375.16;4907816;28;20034;-26